Rio Ceballos, Argentina
Current Conditions -  °F | °C
As of 9:00 PM on Saturday 20 Dec 2014 (Local Time) from SACO Reporting Station
Thunderstorm Thunderstorm  
Wind Chill: 70°   Ceiling: Unl
Heat Index: 70°   Visibility: 6mi
Dew Point: 43°   Wind: 15mph
Humidity: 38%   Direction: 140°SE
Pressure: 29.77"   Gusts: NA
Location:  31.17°S, 64.33°W
Report Text: SACO 210000Z 14013KT 9999 TS SCT030FEW035CB 21/06 Q1008
Loading
Personal Weather Stations






























Interactive Weather Map New forecast layout! Learn more

10-Day Weather Forecast

Advertisements
Track Severe Weather on mobile